Time;durP1;ratioP1;P1;durP2;ratioP2;P2;SDS_P1;SDS_P2;PMS_P1;PMS_P2;Temp;Humidity;BMP_temperature;BMP_pressure;BME280_temperature;BME280_humidity;BME280_pressure;Samples;Min_cycle;Max_cycle;Signal;HPM_P1;HPM_P2
2022/07/28 00:01:52;;;;;;;3.75;1.42;;;;;;;17.41;59.75;95854.50;5062817;28;25042;-71
2022/07/28 00:04:18;;;;;;;5.40;1.10;;;;;;;17.48;59.91;95853.00;5072792;28;24439;-72
2022/07/28 00:06:45;;;;;;;4.40;1.20;;;;;;;17.49;59.35;95849.41;5068183;28;24434;-72
2022/07/28 00:09:11;;;;;;;2.00;1.13;;;;;;;17.55;59.12;95840.19;5072372;28;24435;-72
2022/07/28 00:11:39;;;;;;;1.85;1.08;;;;;;;17.57;59.26;95839.06;5067604;28;24439;-72
2022/07/28 00:14:06;;;;;;;3.42;1.13;;;;;;;17.60;59.67;95837.97;5072461;28;24480;-72
2022/07/28 00:16:32;;;;;;;1.88;1.10;;;;;;;17.51;59.25;95833.59;5072640;28;24443;-72
2022/07/28 00:18:59;;;;;;;3.87;1.33;;;;;;;17.25;60.12;95839.34;5070441;28;24449;-72
2022/07/28 00:21:25;;;;;;;3.00;1.30;;;;;;;17.01;60.83;95836.25;5072559;28;24443;-72
2022/07/28 00:23:51;;;;;;;2.78;1.08;;;;;;;17.02;61.17;95835.28;5072167;28;24527;-72
2022/07/28 00:26:18;;;;;;;3.40;1.17;;;;;;;17.06;60.89;95840.13;5068701;28;24530;-72
2022/07/28 00:28:46;;;;;;;4.72;1.40;;;;;;;16.85;61.79;95834.97;5071752;28;24450;-72
2022/07/28 00:31:13;;;;;;;2.47;1.23;;;;;;;16.79;62.27;95835.50;5072096;28;24435;-72
2022/07/28 00:33:40;;;;;;;2.60;1.10;;;;;;;17.00;62.08;95832.81;5071848;28;24467;-72
2022/07/28 00:36:08;;;;;;;2.35;1.20;;;;;;;17.20;62.47;95832.84;5071647;28;24446;-72
2022/07/28 00:38:35;;;;;;;3.30;0.93;;;;;;;17.32;62.29;95827.38;5070985;28;24446;-72
2022/07/28 00:41:10;;;;;;;5.50;1.42;;;;;;;17.10;62.40;95833.66;5095341;22;24461;-75
2022/07/28 00:43:37;;;;;;;4.07;1.20;;;;;;;17.09;62.56;95826.78;5077943;28;24449;-75
2022/07/28 00:46:07;;;;;;;3.90;1.40;;;;;;;17.14;61.90;95827.19;5076787;28;24993;-75
2022/07/28 00:48:34;;;;;;;2.25;1.25;;;;;;;17.16;61.76;95819.19;5079787;28;24449;-74
2022/07/28 00:51:00;;;;;;;2.78;1.20;;;;;;;17.13;60.89;95817.69;5068678;28;24804;-75
2022/07/28 00:53:27;;;;;;;3.28;1.13;;;;;;;17.25;61.66;95814.97;5066455;28;24437;-75
2022/07/28 00:55:53;;;;;;;2.30;1.00;;;;;;;17.27;61.94;95810.41;5068107;28;24438;-75
2022/07/28 00:58:19;;;;;;;3.08;1.20;;;;;;;17.19;62.54;95816.31;5067999;28;24439;-74
2022/07/28 01:00:46;;;;;;;3.72;1.23;;;;;;;16.99;62.04;95814.66;5068414;28;24438;-75
2022/07/28 01:03:14;;;;;;;2.22;1.23;;;;;;;17.01;61.29;95808.28;5065664;28;24457;-75
2022/07/28 01:05:52;;;;;;;1.75;1.17;;;;;;;16.99;61.59;95810.22;5059518;28;24435;-75
2022/07/28 01:08:26;;;;;;;1.40;1.00;;;;;;;16.86;61.32;95812.25;5066512;28;24434;-75
2022/07/28 01:11:01;;;;;;;2.17;1.10;;;;;;;16.67;62.31;95803.34;5059121;28;25215;-75
2022/07/28 01:13:37;;;;;;;3.67;1.35;;;;;;;16.89;61.50;95801.53;5066224;28;24950;-74
2022/07/28 01:16:06;;;;;;;3.25;1.38;;;;;;;16.79;62.23;95808.50;5062161;28;24508;-75
2022/07/28 01:18:47;;;;;;;2.60;1.15;;;;;;;16.75;62.52;95804.50;5059594;28;24815;-75
2022/07/28 01:21:17;;;;;;;2.08;1.10;;;;;;;16.83;61.78;95802.88;5069059;28;24458;-75
2022/07/28 01:23:58;;;;;;;2.35;1.02;;;;;;;16.86;61.87;95804.41;5055878;28;24455;-75
2022/07/28 01:26:39;;;;;;;2.85;1.20;;;;;;;17.01;62.45;95803.06;5064800;28;24511;-76
2022/07/28 01:29:31;;;;;;;2.50;1.17;;;;;;;16.73;63.66;95801.19;5055040;28;24843;-75
2022/07/28 01:32:02;;;;;;;2.10;1.10;;;;;;;16.73;62.17;95799.41;5053149;28;24526;-75
2022/07/28 01:34:31;;;;;;;2.15;1.13;;;;;;;16.60;62.78;95799.63;5070391;28;24446;-75
2022/07/28 01:37:05;;;;;;;3.05;1.27;;;;;;;16.47;62.72;95792.97;5060843;28;24442;-75
2022/07/28 01:39:34;;;;;;;3.20;1.25;;;;;;;16.43;63.28;95788.00;5070197;28;24983;-75
2022/07/28 01:42:04;;;;;;;3.13;1.15;;;;;;;16.36;63.29;95793.91;5060868;28;25032;-75
2022/07/28 01:44:34;;;;;;;5.10;1.50;;;;;;;16.36;63.67;95793.91;5063689;28;24795;-75
2022/07/28 01:47:06;;;;;;;2.47;1.27;;;;;;;16.33;63.56;95786.31;5064468;28;24509;-75
2022/07/28 01:49:34;;;;;;;4.67;1.43;;;;;;;16.23;63.95;95781.03;5062678;28;24501;-75
2022/07/28 01:52:01;;;;;;;3.90;1.15;;;;;;;16.32;63.67;95779.44;5057838;28;24797;-75
2022/07/28 01:54:30;;;;;;;2.53;0.95;;;;;;;16.39;65.51;95776.16;5062439;28;24831;-75
2022/07/28 01:57:00;;;;;;;2.40;1.17;;;;;;;16.27;66.35;95771.16;5059232;28;24517;-75
2022/07/28 01:59:29;;;;;;;4.00;1.20;;;;;;;15.95;65.64;95775.53;5070002;28;25032;-75
2022/07/28 02:01:58;;;;;;;2.40;1.33;;;;;;;15.95;65.61;95772.94;5066341;28;25025;-76
2022/07/28 02:04:27;;;;;;;2.70;1.20;;;;;;;15.86;65.84;95775.47;5060878;28;25015;-76
2022/07/28 02:06:56;;;;;;;8.60;1.42;;;;;;;15.53;67.57;95760.81;5066150;28;24492;-76
2022/07/28 02:09:25;;;;;;;5.75;1.70;;;;;;;15.27;68.87;95762.94;5058782;28;24449;-76
2022/07/28 02:11:53;;;;;;;3.88;1.40;;;;;;;15.00;69.64;95762.44;5069108;28;24435;-76
2022/07/28 02:14:23;;;;;;;2.80;1.40;;;;;;;14.95;70.44;95769.81;5066436;28;24492;-76
2022/07/28 02:16:54;;;;;;;3.95;1.38;;;;;;;14.85;70.85;95768.91;5069037;28;24441;-76
2022/07/28 02:19:22;;;;;;;7.87;1.53;;;;;;;14.79;71.20;95764.16;5069534;28;24435;-76
2022/07/28 02:21:51;;;;;;;2.92;1.40;;;;;;;14.68;71.67;95765.03;5060896;28;24447;-76
2022/07/28 02:24:21;;;;;;;4.23;1.43;;;;;;;14.75;71.69;95755.75;5068972;28;24446;-76
2022/07/28 02:26:53;;;;;;;4.22;1.55;;;;;;;14.96;70.72;95761.03;5068919;28;24974;-76
2022/07/28 02:29:23;;;;;;;3.50;1.40;;;;;;;15.19;71.06;95756.56;5059165;28;24436;-76
2022/07/28 02:31:55;;;;;;;2.23;1.30;;;;;;;15.32;70.50;95756.41;5066048;28;24496;-76
2022/07/28 02:34:23;;;;;;;3.33;1.52;;;;;;;15.37;69.80;95761.25;5068654;28;24437;-74
2022/07/28 02:36:56;;;;;;;3.80;1.58;;;;;;;15.39;68.93;95754.94;5070715;28;24474;-74
2022/07/28 02:39:25;;;;;;;2.75;1.20;;;;;;;15.47;69.50;95754.31;5066716;28;24442;-74
2022/07/28 02:41:58;;;;;;;3.25;1.40;;;;;;;15.40;68.64;95751.38;5063288;28;24450;-74
2022/07/28 02:44:29;;;;;;;2.95;1.27;;;;;;;15.30;69.55;95755.69;5065517;28;24473;-74
2022/07/28 02:46:58;;;;;;;1.98;1.23;;;;;;;15.37;69.55;95751.63;5056553;28;24524;-74
2022/07/28 02:49:30;;;;;;;2.17;1.20;;;;;;;15.33;69.19;95750.22;5057448;28;24431;-74
2022/07/28 02:52:00;;;;;;;1.90;1.20;;;;;;;15.42;70.50;95746.03;5063034;28;24446;-73
2022/07/28 02:54:27;;;;;;;2.65;1.38;;;;;;;15.44;70.37;95750.16;5066865;28;24438;-73
2022/07/28 02:56:56;;;;;;;2.35;1.10;;;;;;;15.43;70.52;95751.13;5067271;28;24439;-73
2022/07/28 02:59:23;;;;;;;3.05;1.20;;;;;;;15.15;69.65;95747.34;5060281;28;24439;-73
2022/07/28 03:01:51;;;;;;;2.90;1.40;;;;;;;14.94;70.47;95747.31;5064404;28;25037;-73
2022/07/28 03:04:55;;;;;;;2.92;1.42;;;;;;;14.84;71.42;95748.16;5068916;28;24890;-73
2022/07/28 03:07:08;;;;;;;5.57;1.55;;;;;;;14.67;72.38;95752.94;5063488;28;24521;-74
2022/07/28 03:09:39;;;;;;;2.10;1.33;;;;;;;14.54;73.14;95749.66;5064520;28;24489;-74
2022/07/28 03:12:06;;;;;;;2.90;1.70;;;;;;;14.28;75.33;95759.47;5072937;28;24993;-75
2022/07/28 03:14:32;;;;;;;2.40;1.13;;;;;;;14.21;76.06;95758.28;5071890;28;24842;-75
2022/07/28 03:16:59;;;;;;;3.85;1.17;;;;;;;14.29;75.75;95740.28;5057710;28;24841;-75
2022/07/28 03:19:25;;;;;;;2.22;1.15;;;;;;;14.52;74.97;95741.94;5062116;28;24822;-75
2022/07/28 03:21:52;;;;;;;3.30;1.50;;;;;;;14.66;75.03;95747.84;5072839;28;24438;-75
2022/07/28 03:24:22;;;;;;;2.42;1.30;;;;;;;14.73;74.26;95747.25;5071722;28;24447;-75
2022/07/28 03:26:56;;;;;;;2.45;1.00;;;;;;;14.76;74.21;95751.38;5068782;28;24438;-75
2022/07/28 03:29:24;;;;;;;4.50;1.08;;;;;;;14.80;73.53;95749.38;5072065;28;24441;-75
2022/07/28 03:31:54;;;;;;;1.50;0.90;;;;;;;14.61;74.95;95747.38;5068527;28;24466;-75
2022/07/28 03:34:20;;;;;;;2.30;1.30;;;;;;;14.57;74.54;95751.16;5062177;28;24488;-75
2022/07/28 03:36:52;;;;;;;3.27;1.30;;;;;;;14.57;74.91;95759.00;5067817;28;24434;-75
2022/07/28 03:39:23;;;;;;;3.00;1.50;;;;;;;14.59;75.09;95757.94;5067734;28;24434;-75
2022/07/28 03:41:52;;;;;;;2.55;1.30;;;;;;;14.61;74.62;95757.78;5069872;28;24442;-75
2022/07/28 03:44:19;;;;;;;1.77;1.10;;;;;;;14.53;75.05;95768.81;5071346;28;24504;-75
2022/07/28 03:46:46;;;;;;;1.88;1.10;;;;;;;14.50;75.14;95762.09;5065870;28;24507;-75
2022/07/28 03:49:13;;;;;;;2.08;1.20;;;;;;;14.54;75.06;95767.06;5065415;28;25108;-74
2022/07/28 03:51:39;;;;;;;1.75;1.17;;;;;;;14.60;74.65;95769.19;5071062;28;24538;-75
2022/07/28 03:54:06;;;;;;;7.35;1.30;;;;;;;14.60;74.41;95761.34;5070576;28;24439;-75
2022/07/28 03:56:34;;;;;;;1.92;1.10;;;;;;;14.55;75.05;95772.16;5069479;28;24484;-75
2022/07/28 03:59:00;;;;;;;2.22;1.48;;;;;;;14.56;75.08;95762.56;5066004;28;25035;-75
2022/07/28 04:01:27;;;;;;;4.82;1.30;;;;;;;14.60;74.77;95769.19;5071045;28;24999;-75
2022/07/28 04:03:53;;;;;;;2.47;1.42;;;;;;;14.63;74.51;95763.72;5065282;28;24454;-75
2022/07/28 04:06:20;;;;;;;2.67;1.23;;;;;;;14.67;74.14;95775.56;5069404;28;24435;-75
2022/07/28 04:08:46;;;;;;;3.03;1.10;;;;;;;14.53;75.49;95768.81;5063445;28;24442;-75
2022/07/28 04:11:13;;;;;;;2.47;1.30;;;;;;;14.48;75.66;95771.75;5069333;28;24855;-75
2022/07/28 04:13:40;;;;;;;7.72;1.40;;;;;;;14.40;76.31;95768.94;5069939;28;24476;-75
2022/07/28 04:16:07;;;;;;;1.73;1.00;;;;;;;14.39;77.04;95771.69;5064159;28;24488;-75
2022/07/28 04:18:33;;;;;;;3.83;1.20;;;;;;;14.38;76.56;95767.38;5069689;28;24435;-75
2022/07/28 04:21:00;;;;;;;2.55;1.30;;;;;;;14.41;76.69;95772.38;5065802;28;24812;-75
2022/07/28 04:23:26;;;;;;;2.65;1.30;;;;;;;14.49;75.96;95760.41;5071428;28;24457;-74
2022/07/28 04:25:53;;;;;;;4.18;1.30;;;;;;;14.40;77.33;95760.28;5068667;28;24506;-74
2022/07/28 04:28:19;;;;;;;3.70;1.37;;;;;;;14.35;77.46;95762.41;5063199;28;24825;-75
2022/07/28 04:30:47;;;;;;;2.38;1.20;;;;;;;14.41;77.43;95761.94;5056240;28;24813;-73
2022/07/28 04:33:13;;;;;;;2.28;1.17;;;;;;;14.46;77.62;95765.00;5055088;28;24995;-74
2022/07/28 04:35:40;;;;;;;2.03;1.20;;;;;;;14.46;77.79;95767.63;5064209;28;24979;-74
2022/07/28 04:38:07;;;;;;;3.90;1.20;;;;;;;14.49;77.75;95759.56;5061683;28;24435;-75
2022/07/28 04:40:34;;;;;;;3.17;1.30;;;;;;;14.52;77.64;95764.56;5069965;28;24517;-75
2022/07/28 04:43:02;;;;;;;5.05;1.30;;;;;;;14.56;77.62;95763.38;5061871;28;24470;-75
2022/07/28 04:45:28;;;;;;;3.13;1.60;;;;;;;14.62;77.53;95765.50;5065461;28;24492;-75
2022/07/28 04:47:56;;;;;;;2.22;1.40;;;;;;;14.70;77.09;95759.69;5069399;28;24838;-73
2022/07/28 04:50:23;;;;;;;3.40;1.35;;;;;;;14.84;76.82;95766.41;5064172;28;24439;-74
2022/07/28 04:52:49;;;;;;;2.40;1.33;;;;;;;14.92;78.38;95766.63;5067897;28;24441;-75
2022/07/28 04:55:17;;;;;;;2.00;1.15;;;;;;;14.75;79.16;95763.56;5057642;28;25196;-76
2022/07/28 04:57:43;;;;;;;2.20;1.38;;;;;;;14.72;79.63;95756.03;5065251;28;24971;-76
2022/07/28 05:00:12;;;;;;;2.10;1.20;;;;;;;14.62;80.54;95757.69;5053597;28;24439;-75
2022/07/28 05:02:39;;;;;;;2.30;1.10;;;;;;;14.65;80.15;95756.63;5057563;28;25039;-76
2022/07/28 05:05:08;;;;;;;2.33;1.10;;;;;;;14.59;82.16;95757.09;5056450;28;24570;-70
2022/07/28 05:07:35;;;;;;;3.85;1.50;;;;;;;14.72;80.51;95760.38;5070601;28;24800;-75
2022/07/28 05:10:03;;;;;;;2.30;1.40;;;;;;;14.77;81.08;95764.28;5062513;28;24442;-75
2022/07/28 05:12:29;;;;;;;2.83;1.23;;;;;;;14.88;81.39;95765.22;5065637;28;24495;-75
2022/07/28 05:14:55;;;;;;;1.50;0.90;;;;;;;14.99;80.07;95762.59;5063431;28;24435;-74
2022/07/28 05:17:22;;;;;;;7.22;1.08;;;;;;;15.06;78.05;95761.13;5065654;28;24442;-74
2022/07/28 05:19:48;;;;;;;2.63;1.45;;;;;;;15.22;79.22;95768.53;5070000;28;24808;-74
2022/07/28 05:22:17;;;;;;;2.67;1.30;;;;;;;15.20;78.08;95766.06;5065132;28;24454;-74
2022/07/28 05:24:43;;;;;;;2.67;1.10;;;;;;;15.18;79.13;95761.91;5064194;28;24984;-76
2022/07/28 05:27:11;;;;;;;2.53;1.30;;;;;;;15.30;80.81;95766.13;5070200;28;24439;-74
2022/07/28 05:29:40;;;;;;;3.25;1.25;;;;;;;15.35;81.64;95761.38;5064002;28;24519;-73
2022/07/28 05:32:06;;;;;;;2.05;1.10;;;;;;;15.40;80.89;95761.00;5060400;28;24493;-74
2022/07/28 05:34:33;;;;;;;3.10;1.40;;;;;;;15.54;80.29;95760.69;5068332;28;24446;-76
2022/07/28 05:37:01;;;;;;;3.65;1.40;;;;;;;15.68;79.54;95760.41;5055957;28;24439;-75
2022/07/28 05:39:31;;;;;;;4.07;1.40;;;;;;;15.90;78.20;95764.63;5067690;28;24528;-74
2022/07/28 05:41:58;;;;;;;3.20;1.50;;;;;;;16.19;77.77;95761.34;5062503;28;24438;-75
2022/07/28 05:44:24;;;;;;;2.67;1.25;;;;;;;16.41;76.65;95763.78;5056653;28;24669;-75
2022/07/28 05:46:51;;;;;;;4.22;1.50;;;;;;;16.36;71.02;95762.53;5060309;28;24458;-75
2022/07/28 05:49:17;;;;;;;3.03;1.38;;;;;;;16.34;68.75;95756.59;5064050;28;24533;-73
2022/07/28 05:51:44;;;;;;;3.58;1.27;;;;;;;16.03;70.13;95766.25;5057281;28;24446;-75
2022/07/28 05:54:10;;;;;;;2.90;1.33;;;;;;;16.06;69.57;95766.81;5056111;28;24434;-75
2022/07/28 05:56:38;;;;;;;4.17;1.50;;;;;;;16.17;69.41;95771.94;5064903;28;24438;-75
2022/07/28 05:59:08;;;;;;;6.97;1.80;;;;;;;16.20;67.94;95766.47;5056644;28;24519;-75
2022/07/28 06:01:36;;;;;;;2.78;1.35;;;;;;;16.13;68.55;95769.69;5062242;28;24438;-75
2022/07/28 06:04:02;;;;;;;4.57;1.30;;;;;;;16.42;68.62;95768.03;5068270;28;25006;-75
2022/07/28 06:06:29;;;;;;;5.68;1.48;;;;;;;16.73;68.33;95757.56;5066417;28;24484;-74
2022/07/28 06:08:55;;;;;;;3.58;1.50;;;;;;;16.81;66.39;95759.53;5065070;28;24431;-73
2022/07/28 06:11:22;;;;;;;3.83;1.83;;;;;;;16.83;65.78;95753.19;5066402;28;24468;-72
2022/07/28 06:13:51;;;;;;;4.25;1.63;;;;;;;16.84;66.29;95754.03;5068524;28;24855;-72
2022/07/28 06:16:18;;;;;;;2.70;1.52;;;;;;;17.23;67.75;95748.81;5069440;28;24431;-72
2022/07/28 06:18:44;;;;;;;3.20;1.70;;;;;;;17.67;67.03;95750.84;5060672;28;24454;-73
2022/07/28 06:21:11;;;;;;;3.43;1.57;;;;;;;17.88;66.39;95744.66;5064955;28;24525;-73
2022/07/28 06:23:37;;;;;;;2.97;1.35;;;;;;;17.94;64.82;95746.69;5067231;28;24431;-73
2022/07/28 06:26:04;;;;;;;5.00;1.88;;;;;;;18.18;65.11;95745.41;5061144;28;24442;-76
2022/07/28 06:28:31;;;;;;;2.30;1.40;;;;;;;18.28;66.03;95747.03;5068380;28;24434;-75
2022/07/28 06:30:59;;;;;;;3.40;1.50;;;;;;;18.71;65.32;95745.59;5061897;28;25402;-75
2022/07/28 06:33:25;;;;;;;3.45;1.60;;;;;;;18.80;64.45;95749.97;5061295;28;24485;-76
2022/07/28 06:35:52;;;;;;;4.55;1.85;;;;;;;18.94;63.34;95745.97;5066680;28;24439;-73
2022/07/28 06:38:19;;;;;;;4.20;1.60;;;;;;;19.09;63.62;95744.50;5061068;28;24812;-77
2022/07/28 06:40:45;;;;;;;2.75;1.48;;;;;;;19.34;61.87;95740.31;5084773;22;24439;-75
2022/07/28 06:43:13;;;;;;;6.30;2.17;;;;;;;19.61;60.79;95742.97;5057530;28;24446;-76
2022/07/28 06:45:40;;;;;;;10.27;2.30;;;;;;;19.53;62.01;95743.75;5047952;28;24455;-76
2022/07/28 06:48:08;;;;;;;4.70;2.15;;;;;;;19.73;61.69;95747.06;5049285;28;24527;-76
2022/07/28 06:50:34;;;;;;;5.05;2.22;;;;;;;19.51;61.34;95736.03;5048487;28;24997;-76
2022/07/28 06:53:01;;;;;;;7.53;2.03;;;;;;;19.92;62.21;95746.84;5029452;28;24431;-75
2022/07/28 06:55:28;;;;;;;3.85;2.50;;;;;;;20.47;60.56;95745.69;5026184;28;24455;-75
2022/07/28 06:57:56;;;;;;;4.35;2.33;;;;;;;20.19;59.78;95751.13;5022134;28;24451;-77
2022/07/28 07:00:22;;;;;;;7.55;2.53;;;;;;;20.24;60.60;95750.66;5031530;28;24489;-76
2022/07/28 07:02:49;;;;;;;3.55;1.98;;;;;;;20.39;58.88;95745.63;5029736;28;24432;-76
2022/07/28 07:05:17;;;;;;;4.40;2.53;;;;;;;20.51;59.89;95742.59;5031091;28;24501;-75
2022/07/28 07:07:43;;;;;;;4.28;2.80;;;;;;;20.79;60.94;95742.38;5036125;28;24797;-75
2022/07/28 07:10:11;;;;;;;5.80;3.38;;;;;;;21.07;61.29;95739.50;5030865;28;24541;-74
2022/07/28 07:12:38;;;;;;;6.67;3.07;;;;;;;21.19;59.18;95743.44;5031183;28;24980;-75
2022/07/28 07:15:06;;;;;;;3.70;2.83;;;;;;;21.31;58.50;95747.41;5034806;28;24484;-75
2022/07/28 07:17:33;;;;;;;7.40;3.03;;;;;;;21.42;58.51;95738.41;5028975;28;25090;-74
2022/07/28 07:19:59;;;;;;;3.75;3.20;;;;;;;21.49;58.28;95744.66;5030454;28;24440;-74
2022/07/28 07:22:27;;;;;;;5.18;2.97;;;;;;;21.63;58.07;95740.56;5036390;28;24443;-74
2022/07/28 07:24:53;;;;;;;6.28;2.97;;;;;;;21.73;59.34;95741.22;5034207;28;24455;-75
2022/07/28 07:27:20;;;;;;;5.20;3.03;;;;;;;21.80;58.08;95743.97;5034966;28;24813;-72
2022/07/28 07:29:46;;;;;;;4.73;3.27;;;;;;;21.66;57.64;95735.78;5036426;28;25132;-73
2022/07/28 07:32:13;;;;;;;4.25;3.17;;;;;;;21.97;57.47;95738.53;5035382;28;24958;-73
2022/07/28 07:34:39;;;;;;;6.30;3.13;;;;;;;21.50;58.79;95741.84;5038880;28;24431;-74
2022/07/28 07:37:10;;;;;;;4.72;3.05;;;;;;;21.98;59.15;95740.16;5037426;28;24443;-74
2022/07/28 07:39:38;;;;;;;5.63;2.97;;;;;;;22.04;59.74;95738.69;5033251;28;24530;-74
2022/07/28 07:42:05;;;;;;;6.27;3.50;;;;;;;22.17;56.23;95730.25;5033246;28;24520;-74
2022/07/28 07:44:31;;;;;;;4.72;2.78;;;;;;;22.27;57.16;95732.72;5037311;28;24561;-76
2022/07/28 07:46:58;;;;;;;5.70;3.47;;;;;;;22.50;55.04;95738.09;5040516;28;25026;-75
2022/07/28 07:49:24;;;;;;;4.53;3.20;;;;;;;22.20;55.59;95737.84;5035733;28;24442;-75
2022/07/28 07:51:51;;;;;;;7.32;4.10;;;;;;;22.70;55.76;95732.25;5040328;28;24442;-75
2022/07/28 07:54:17;;;;;;;6.55;3.35;;;;;;;22.65;54.94;95736.38;5040399;28;24805;-75
2022/07/28 07:56:45;;;;;;;5.22;2.90;;;;;;;22.56;56.05;95735.59;5040332;28;24849;-74
2022/07/28 07:59:11;;;;;;;8.15;2.65;;;;;;;22.83;55.54;95742.22;5030578;28;24778;-75
2022/07/28 08:01:37;;;;;;;3.30;2.70;;;;;;;23.05;53.67;95731.91;5039415;28;24436;-74
2022/07/28 08:04:04;;;;;;;5.28;3.38;;;;;;;23.04;52.50;95733.75;5032386;28;24443;-74
2022/07/28 08:06:31;;;;;;;8.27;3.42;;;;;;;23.46;53.81;95729.00;5030745;28;24818;-72
2022/07/28 08:08:57;;;;;;;4.38;2.70;;;;;;;23.47;53.66;95728.81;5035425;28;24462;-74
2022/07/28 08:11:24;;;;;;;6.30;3.20;;;;;;;23.50;52.67;95730.28;5033276;28;25015;-72
2022/07/28 08:13:51;;;;;;;9.18;3.40;;;;;;;23.42;52.73;95725.88;5036083;28;24481;-72
2022/07/28 08:16:18;;;;;;;5.15;3.10;;;;;;;23.16;52.45;95723.59;5035799;28;24432;-73
2022/07/28 08:18:44;;;;;;;6.70;2.75;;;;;;;23.33;55.04;95725.13;5039254;28;24440;-73
2022/07/28 08:21:12;;;;;;;5.65;3.40;;;;;;;23.50;54.22;95722.34;5038472;28;25005;-73
2022/07/28 08:23:38;;;;;;;10.55;2.92;;;;;;;23.58;51.06;95725.75;5044214;28;25030;-72
2022/07/28 08:26:05;;;;;;;5.82;2.97;;;;;;;23.77;52.86;95726.28;5026550;28;24505;-73
2022/07/28 08:28:31;;;;;;;4.57;2.90;;;;;;;23.97;52.30;95730.06;5037363;28;24443;-73
2022/07/28 08:30:59;;;;;;;7.32;2.88;;;;;;;23.89;52.06;95720.38;5024484;28;24451;-73
2022/07/28 08:33:25;;;;;;;7.70;3.00;;;;;;;24.13;52.65;95721.94;5037747;28;24439;-73
2022/07/28 08:35:52;;;;;;;6.00;2.83;;;;;;;24.19;51.66;95719.59;5036376;28;24428;-73
2022/07/28 08:38:18;;;;;;;5.55;3.05;;;;;;;24.42;51.02;95724.84;5023932;28;24435;-72
2022/07/28 08:40:47;;;;;;;6.20;3.58;;;;;;;24.61;50.37;95725.06;5031616;28;25070;-73
2022/07/28 08:43:25;;;;;;;7.43;3.13;;;;;;;24.62;50.63;95723.25;5034131;28;24443;-73
2022/07/28 08:45:52;;;;;;;5.93;2.72;;;;;;;24.23;48.84;95726.16;5031399;28;24455;-73
2022/07/28 08:48:21;;;;;;;10.45;2.67;;;;;;;24.52;51.38;95733.31;5038676;28;24896;-73
2022/07/28 08:50:50;;;;;;;4.00;2.90;;;;;;;24.48;49.39;95732.06;5026088;28;24440;-74
2022/07/28 08:53:19;;;;;;;4.93;3.08;;;;;;;24.61;50.56;95729.56;5026619;28;25059;-74
2022/07/28 08:55:47;;;;;;;5.72;3.25;;;;;;;24.65;49.00;95730.81;5035921;28;24435;-73
2022/07/28 08:58:14;;;;;;;9.98;3.35;;;;;;;24.74;50.02;95728.91;5027197;28;24992;-73
2022/07/28 09:00:41;;;;;;;13.18;3.42;;;;;;;24.85;49.55;95725.78;5039053;28;24435;-73
2022/07/28 09:03:10;;;;;;;6.55;3.13;;;;;;;25.30;48.03;95722.03;5023436;28;24432;-75
2022/07/28 09:05:40;;;;;;;6.47;3.28;;;;;;;25.30;47.49;95722.03;5030323;28;25283;-74
2022/07/28 09:08:07;;;;;;;6.55;3.30;;;;;;;25.47;47.69;95727.88;5025768;28;24447;-74
2022/07/28 09:10:34;;;;;;;4.63;3.08;;;;;;;25.20;48.24;95718.03;5025696;28;24440;-73
2022/07/28 09:13:00;;;;;;;5.70;3.42;;;;;;;25.04;48.19;95724.38;5032107;28;25033;-74
2022/07/28 09:15:27;;;;;;;7.25;2.97;;;;;;;25.15;48.73;95715.16;5033288;28;24424;-75
2022/07/28 09:17:54;;;;;;;9.83;3.30;;;;;;;25.33;48.29;95718.19;5027815;28;24524;-74
2022/07/28 09:20:21;;;;;;;5.47;3.67;;;;;;;25.41;49.00;95711.94;5030903;28;24451;-74
2022/07/28 09:22:57;;;;;;;4.10;3.38;;;;;;;24.87;49.31;95713.16;5045362;28;24492;-74
2022/07/28 09:25:24;;;;;;;5.80;3.13;;;;;;;25.40;50.49;95719.06;5025623;28;24459;-74
2022/07/28 09:27:51;;;;;;;5.63;3.43;;;;;;;25.76;47.98;95720.78;5031868;28;24432;-74
2022/07/28 09:30:27;;;;;;;6.05;3.40;;;;;;;25.95;48.53;95721.97;5038159;28;24571;-73
2022/07/28 09:33:18;;;;;;;12.77;4.13;;;;;;;25.51;48.36;95715.06;5027119;28;24485;-73
2022/07/28 09:35:46;;;;;;;6.03;4.03;;;;;;;25.21;49.48;95720.50;5028067;28;24458;-73
2022/07/28 09:38:14;;;;;;;8.90;4.00;;;;;;;25.15;50.20;95715.16;5035090;28;24435;-74
2022/07/28 09:40:43;;;;;;;7.63;4.13;;;;;;;24.89;49.01;95710.34;5029985;28;24992;-74
2022/07/28 09:43:10;;;;;;;5.30;3.40;;;;;;;25.46;51.57;95698.91;5033303;28;24505;-74
2022/07/28 09:45:36;;;;;;;5.07;3.47;;;;;;;25.72;50.14;95706.28;5029217;28;24533;-74
2022/07/28 09:48:11;;;;;;;5.30;3.25;;;;;;;25.77;47.75;95701.19;5029675;28;24490;-73
2022/07/28 09:50:38;;;;;;;4.38;2.92;;;;;;;25.74;49.33;95699.78;5027070;28;24494;-74
2022/07/28 09:53:22;;;;;;;5.90;3.60;;;;;;;25.95;46.44;95695.44;5029125;28;24997;-73
2022/07/28 09:55:56;;;;;;;6.40;3.60;;;;;;;26.22;48.03;95689.31;5031747;28;25563;-74
2022/07/28 09:58:23;;;;;;;8.75;3.67;;;;;;;26.27;47.42;95694.84;5037240;28;24454;-73
2022/07/28 10:00:49;;;;;;;8.05;3.75;;;;;;;26.59;47.62;95692.59;5034937;28;24475;-73
2022/07/28 10:03:24;;;;;;;5.65;3.42;;;;;;;26.39;46.36;95696.94;5032763;28;24450;-73
2022/07/28 10:05:51;;;;;;;7.78;3.65;;;;;;;26.04;45.26;95694.31;5030056;28;24551;-73
2022/07/28 10:08:17;;;;;;;5.07;3.47;;;;;;;25.91;48.11;95688.91;5034510;28;24434;-74
2022/07/28 10:10:59;;;;;;;6.53;3.38;;;;;;;26.08;49.81;95682.28;5030905;28;24730;-73
2022/07/28 10:13:26;;;;;;;6.15;3.60;;;;;;;26.26;47.32;95690.56;5027204;28;24443;-74
2022/07/28 10:16:10;;;;;;;4.80;3.35;;;;;;;26.10;46.35;95688.19;5029646;28;24432;-73
2022/07/28 10:18:37;;;;;;;5.57;3.00;;;;;;;25.66;47.33;95686.66;5035013;28;24447;-73
2022/07/28 10:21:07;;;;;;;7.75;3.85;;;;;;;25.86;48.91;95678.06;5029262;28;24535;-73
2022/07/28 10:23:35;;;;;;;8.32;3.35;;;;;;;26.26;46.91;95681.78;5038325;28;24439;-73
2022/07/28 10:26:03;;;;;;;6.47;3.63;;;;;;;26.30;47.32;95678.53;5041058;28;24458;-73
2022/07/28 10:28:33;;;;;;;7.85;4.10;;;;;;;26.20;47.47;95671.94;5034674;28;24444;-73
2022/07/28 10:31:01;;;;;;;6.65;3.95;;;;;;;26.35;47.57;95679.78;5031341;28;24444;-73
2022/07/28 10:33:30;;;;;;;10.63;4.10;;;;;;;26.24;47.88;95673.19;5030564;28;24877;-73
2022/07/28 10:36:00;;;;;;;5.28;3.63;;;;;;;26.39;49.36;95670.41;5025640;28;24514;-73
2022/07/28 10:38:33;;;;;;;7.65;4.28;;;;;;;26.00;47.98;95670.00;5034725;28;24975;-73
2022/07/28 10:41:06;;;;;;;9.40;3.65;;;;;;;25.92;49.45;95667.50;5037439;28;24439;-73
2022/07/28 10:43:33;;;;;;;7.03;3.93;;;;;;;25.86;48.22;95672.75;5037159;28;24553;-73
2022/07/28 10:45:59;;;;;;;5.75;3.58;;;;;;;26.12;49.80;95674.75;5033181;28;24452;-73
2022/07/28 10:48:26;;;;;;;5.75;3.53;;;;;;;26.22;47.74;95673.38;5037527;28;24821;-73
2022/07/28 10:50:54;;;;;;;10.85;3.85;;;;;;;26.06;48.49;95679.00;5040892;28;24458;-73
2022/07/28 10:53:33;;;;;;;5.05;3.75;;;;;;;25.86;47.49;95670.91;5031406;28;24428;-73
2022/07/28 10:56:07;;;;;;;4.85;3.35;;;;;;;25.55;49.13;95673.91;5036920;28;25043;-72
2022/07/28 10:58:45;;;;;;;6.77;3.73;;;;;;;25.51;49.27;95677.94;5038044;28;24490;-72
2022/07/28 11:01:11;;;;;;;7.03;3.80;;;;;;;25.62;48.66;95674.75;5034634;28;24472;-72
2022/07/28 11:03:41;;;;;;;8.05;4.20;;;;;;;25.68;49.58;95676.66;5036431;28;24436;-73
2022/07/28 11:06:28;;;;;;;9.75;3.85;;;;;;;25.83;48.48;95676.59;5042581;28;25049;-72
2022/07/28 11:08:55;;;;;;;8.35;3.83;;;;;;;26.25;47.11;95669.50;5035395;28;24435;-73
2022/07/28 11:11:46;;;;;;;5.05;3.30;;;;;;;26.62;46.23;95664.78;5040744;28;25045;-73
2022/07/28 11:14:34;;;;;;;6.00;3.63;;;;;;;26.50;44.92;95661.91;5036115;28;24439;-72
2022/07/28 11:17:15;;;;;;;4.60;3.35;;;;;;;26.49;48.36;95660.25;5023316;28;24455;-72
2022/07/28 11:19:56;;;;;;;6.45;3.72;;;;;;;26.34;48.35;95670.19;5027051;28;24482;-73
2022/07/28 11:22:27;;;;;;;8.13;3.70;;;;;;;26.18;48.43;95672.13;5027687;28;24628;-73
2022/07/28 11:25:13;;;;;;;7.82;3.50;;;;;;;25.85;47.17;95665.81;5030393;28;24592;-73
2022/07/28 11:28:04;;;;;;;5.55;3.33;;;;;;;25.73;49.30;95663.63;5034009;28;24431;-73
2022/07/28 11:30:54;;;;;;;5.65;3.50;;;;;;;26.29;47.52;95660.97;5033269;28;25078;-72
2022/07/28 11:33:23;;;;;;;9.68;3.60;;;;;;;26.61;46.66;95653.34;5031349;28;24538;-73
2022/07/28 11:35:55;;;;;;;5.03;3.40;;;;;;;26.42;45.03;95656.72;5033760;28;24799;-73
2022/07/28 11:38:22;;;;;;;5.30;3.13;;;;;;;25.97;46.16;95653.63;5032776;28;24435;-72
2022/07/28 11:40:50;;;;;;;9.05;3.50;;;;;;;26.24;46.60;95651.94;5034843;28;24435;-73
2022/07/28 11:43:34;;;;;;;5.70;3.27;;;;;;;26.33;45.73;95649.94;5034247;28;24509;-72